sensor_id;sensor_type;location;lat;lon;timestamp;P1;durP1;ratioP1;P2;durP2;ratioP2
2039;SDS011;1025;42.686;23.350;2023-10-31T00:01:04;9.43;;;6.17;;
2039;SDS011;1025;42.686;23.350;2023-10-31T00:03:31;10.00;;;7.10;;
2039;SDS011;1025;42.686;23.350;2023-10-31T00:05:59;11.67;;;5.80;;
2039;SDS011;1025;42.686;23.350;2023-10-31T00:08:25;13.00;;;6.20;;
2039;SDS011;1025;42.686;23.350;2023-10-31T00:10:52;7.10;;;5.50;;
2039;SDS011;1025;42.686;23.350;2023-10-31T00:13:18;8.20;;;6.17;;
2039;SDS011;1025;42.686;23.350;2023-10-31T00:15:45;7.20;;;6.50;;
2039;SDS011;1025;42.686;23.350;2023-10-31T00:18:11;11.97;;;5.10;;
2039;SDS011;1025;42.686;23.350;2023-10-31T00:20:38;6.63;;;5.43;;
2039;SDS011;1025;42.686;23.350;2023-10-31T00:23:06;5.47;;;5.03;;
2039;SDS011;1025;42.686;23.350;2023-10-31T00:25:32;6.60;;;5.90;;
2039;SDS011;1025;42.686;23.350;2023-10-31T00:27:59;7.20;;;5.80;;
2039;SDS011;1025;42.686;23.350;2023-10-31T00:30:25;6.80;;;6.10;;
2039;SDS011;1025;42.686;23.350;2023-10-31T00:32:52;7.47;;;5.57;;
2039;SDS011;1025;42.686;23.350;2023-10-31T00:35:18;7.70;;;5.13;;
2039;SDS011;1025;42.686;23.350;2023-10-31T00:37:45;5.63;;;4.93;;
2039;SDS011;1025;42.686;23.350;2023-10-31T00:40:13;6.13;;;5.10;;
2039;SDS011;1025;42.686;23.350;2023-10-31T00:42:41;9.13;;;6.30;;
2039;SDS011;1025;42.686;23.350;2023-10-31T00:45:08;7.50;;;5.90;;
2039;SDS011;1025;42.686;23.350;2023-10-31T00:47:35;8.77;;;6.00;;
2039;SDS011;1025;42.686;23.350;2023-10-31T00:50:01;9.73;;;5.50;;
2039;SDS011;1025;42.686;23.350;2023-10-31T00:52:28;10.17;;;5.93;;
2039;SDS011;1025;42.686;23.350;2023-10-31T00:54:55;8.27;;;6.47;;
2039;SDS011;1025;42.686;23.350;2023-10-31T00:57:22;7.57;;;5.90;;
2039;SDS011;1025;42.686;23.350;2023-10-31T00:59:49;6.83;;;6.03;;
2039;SDS011;1025;42.686;23.350;2023-10-31T01:02:15;7.57;;;5.87;;
2039;SDS011;1025;42.686;23.350;2023-10-31T01:04:42;9.47;;;5.63;;
2039;SDS011;1025;42.686;23.350;2023-10-31T01:07:08;9.47;;;6.20;;
2039;SDS011;1025;42.686;23.350;2023-10-31T01:09:37;10.83;;;8.10;;
2039;SDS011;1025;42.686;23.350;2023-10-31T01:12:04;9.10;;;6.80;;
2039;SDS011;1025;42.686;23.350;2023-10-31T01:14:32;9.57;;;6.53;;
2039;SDS011;1025;42.686;23.350;2023-10-31T01:16:58;11.37;;;7.23;;
2039;SDS011;1025;42.686;23.350;2023-10-31T01:19:25;8.17;;;6.50;;
2039;SDS011;1025;42.686;23.350;2023-10-31T01:21:51;7.83;;;6.93;;
2039;SDS011;1025;42.686;23.350;2023-10-31T01:24:18;13.30;;;8.57;;
2039;SDS011;1025;42.686;23.350;2023-10-31T01:26:44;10.43;;;7.07;;
2039;SDS011;1025;42.686;23.350;2023-10-31T01:29:11;8.30;;;7.50;;
2039;SDS011;1025;42.686;23.350;2023-10-31T01:31:41;9.90;;;7.30;;
2039;SDS011;1025;42.686;23.350;2023-10-31T01:34:08;17.43;;;10.57;;
2039;SDS011;1025;42.686;23.350;2023-10-31T01:36:34;9.10;;;7.13;;
2039;SDS011;1025;42.686;23.350;2023-10-31T01:39:01;9.07;;;8.23;;
2039;SDS011;1025;42.686;23.350;2023-10-31T01:41:28;6.03;;;5.40;;
2039;SDS011;1025;42.686;23.350;2023-10-31T01:43:54;14.60;;;7.00;;
2039;SDS011;1025;42.686;23.350;2023-10-31T01:46:21;8.73;;;7.03;;
2039;SDS011;1025;42.686;23.350;2023-10-31T01:48:49;7.93;;;7.03;;
2039;SDS011;1025;42.686;23.350;2023-10-31T01:51:15;6.83;;;6.10;;
2039;SDS011;1025;42.686;23.350;2023-10-31T01:53:42;9.70;;;6.90;;
2039;SDS011;1025;42.686;23.350;2023-10-31T01:56:08;9.63;;;6.70;;
2039;SDS011;1025;42.686;23.350;2023-10-31T01:58:36;12.27;;;6.53;;
2039;SDS011;1025;42.686;23.350;2023-10-31T02:01:03;8.83;;;7.07;;
2039;SDS011;1025;42.686;23.350;2023-10-31T02:03:30;8.57;;;7.03;;
2039;SDS011;1025;42.686;23.350;2023-10-31T02:05:59;14.90;;;7.07;;
2039;SDS011;1025;42.686;23.350;2023-10-31T02:08:26;8.50;;;6.93;;
2039;SDS011;1025;42.686;23.350;2023-10-31T02:10:52;9.10;;;6.03;;
2039;SDS011;1025;42.686;23.350;2023-10-31T02:13:19;8.63;;;6.83;;
2039;SDS011;1025;42.686;23.350;2023-10-31T02:15:45;10.50;;;6.30;;
2039;SDS011;1025;42.686;23.350;2023-10-31T02:18:12;6.53;;;5.53;;
2039;SDS011;1025;42.686;23.350;2023-10-31T02:20:39;13.40;;;6.83;;
2039;SDS011;1025;42.686;23.350;2023-10-31T02:23:07;12.10;;;7.60;;
2039;SDS011;1025;42.686;23.350;2023-10-31T02:25:34;7.37;;;6.60;;
2039;SDS011;1025;42.686;23.350;2023-10-31T02:28:00;7.77;;;6.03;;
2039;SDS011;1025;42.686;23.350;2023-10-31T02:30:27;10.87;;;7.60;;
2039;SDS011;1025;42.686;23.350;2023-10-31T02:32:54;14.73;;;9.13;;
2039;SDS011;1025;42.686;23.350;2023-10-31T02:35:20;9.60;;;7.17;;
2039;SDS011;1025;42.686;23.350;2023-10-31T02:37:47;7.93;;;7.10;;
2039;SDS011;1025;42.686;23.350;2023-10-31T02:40:15;7.53;;;6.80;;
2039;SDS011;1025;42.686;23.350;2023-10-31T02:42:41;7.13;;;6.27;;
2039;SDS011;1025;42.686;23.350;2023-10-31T02:45:08;14.43;;;6.90;;
2039;SDS011;1025;42.686;23.350;2023-10-31T02:47:35;8.13;;;6.40;;
2039;SDS011;1025;42.686;23.350;2023-10-31T02:50:01;10.37;;;6.87;;
2039;SDS011;1025;42.686;23.350;2023-10-31T02:52:28;13.23;;;8.00;;
2039;SDS011;1025;42.686;23.350;2023-10-31T02:54:54;8.03;;;7.20;;
2039;SDS011;1025;42.686;23.350;2023-10-31T02:57:22;7.87;;;7.07;;
2039;SDS011;1025;42.686;23.350;2023-10-31T02:59:49;9.23;;;8.30;;
2039;SDS011;1025;42.686;23.350;2023-10-31T03:02:15;9.27;;;7.10;;
2039;SDS011;1025;42.686;23.350;2023-10-31T03:04:42;8.07;;;6.60;;
2039;SDS011;1025;42.686;23.350;2023-10-31T03:07:08;8.67;;;7.10;;
2039;SDS011;1025;42.686;23.350;2023-10-31T03:09:35;10.67;;;7.00;;
2039;SDS011;1025;42.686;23.350;2023-10-31T03:12:01;7.53;;;6.60;;
2039;SDS011;1025;42.686;23.350;2023-10-31T03:14:30;8.87;;;7.13;;
2039;SDS011;1025;42.686;23.350;2023-10-31T03:16:56;8.40;;;7.53;;
2039;SDS011;1025;42.686;23.350;2023-10-31T03:19:23;15.67;;;7.37;;
2039;SDS011;1025;42.686;23.350;2023-10-31T03:21:49;14.07;;;7.60;;
2039;SDS011;1025;42.686;23.350;2023-10-31T03:24:16;7.70;;;7.00;;
2039;SDS011;1025;42.686;23.350;2023-10-31T03:26:42;8.53;;;7.57;;
2039;SDS011;1025;42.686;23.350;2023-10-31T03:29:09;8.97;;;5.70;;
2039;SDS011;1025;42.686;23.350;2023-10-31T03:31:37;9.13;;;7.70;;
2039;SDS011;1025;42.686;23.350;2023-10-31T03:34:03;19.90;;;7.67;;
2039;SDS011;1025;42.686;23.350;2023-10-31T03:36:30;11.33;;;7.77;;
2039;SDS011;1025;42.686;23.350;2023-10-31T03:38:56;8.13;;;7.30;;
2039;SDS011;1025;42.686;23.350;2023-10-31T03:41:23;11.30;;;7.80;;
2039;SDS011;1025;42.686;23.350;2023-10-31T03:43:49;11.80;;;7.70;;
2039;SDS011;1025;42.686;23.350;2023-10-31T03:46:16;10.00;;;8.90;;
2039;SDS011;1025;42.686;23.350;2023-10-31T03:48:44;7.47;;;6.77;;
2039;SDS011;1025;42.686;23.350;2023-10-31T03:51:10;7.20;;;5.93;;
2039;SDS011;1025;42.686;23.350;2023-10-31T03:53:37;17.37;;;8.87;;
2039;SDS011;1025;42.686;23.350;2023-10-31T03:56:04;8.80;;;7.90;;
2039;SDS011;1025;42.686;23.350;2023-10-31T03:58:30;11.67;;;9.20;;
2039;SDS011;1025;42.686;23.350;2023-10-31T04:00:56;12.30;;;8.30;;
2039;SDS011;1025;42.686;23.350;2023-10-31T04:03:23;12.53;;;10.50;;
2039;SDS011;1025;42.686;23.350;2023-10-31T04:05:51;11.33;;;9.17;;
2039;SDS011;1025;42.686;23.350;2023-10-31T04:08:17;17.47;;;9.43;;
2039;SDS011;1025;42.686;23.350;2023-10-31T04:10:44;12.33;;;10.20;;
2039;SDS011;1025;42.686;23.350;2023-10-31T04:13:11;15.90;;;12.50;;
2039;SDS011;1025;42.686;23.350;2023-10-31T04:15:37;18.40;;;14.10;;
2039;SDS011;1025;42.686;23.350;2023-10-31T04:18:04;19.10;;;14.47;;
2039;SDS011;1025;42.686;23.350;2023-10-31T04:20:30;23.27;;;14.30;;
2039;SDS011;1025;42.686;23.350;2023-10-31T04:22:58;26.90;;;14.73;;
2039;SDS011;1025;42.686;23.350;2023-10-31T04:25:25;15.80;;;13.13;;
2039;SDS011;1025;42.686;23.350;2023-10-31T04:27:53;16.10;;;13.43;;
2039;SDS011;1025;42.686;23.350;2023-10-31T04:30:20;13.63;;;12.33;;
2039;SDS011;1025;42.686;23.350;2023-10-31T04:32:47;12.87;;;11.57;;
2039;SDS011;1025;42.686;23.350;2023-10-31T04:35:13;22.77;;;12.23;;
2039;SDS011;1025;42.686;23.350;2023-10-31T04:37:40;15.57;;;11.77;;
2039;SDS011;1025;42.686;23.350;2023-10-31T04:40:09;12.67;;;10.40;;
2039;SDS011;1025;42.686;23.350;2023-10-31T04:42:35;15.67;;;13.07;;
2039;SDS011;1025;42.686;23.350;2023-10-31T04:45:02;16.17;;;11.90;;
2039;SDS011;1025;42.686;23.350;2023-10-31T04:47:28;15.73;;;11.33;;
2039;SDS011;1025;42.686;23.350;2023-10-31T04:49:55;13.17;;;10.63;;
2039;SDS011;1025;42.686;23.350;2023-10-31T04:52:22;23.13;;;14.00;;
2039;SDS011;1025;42.686;23.350;2023-10-31T04:54:51;15.70;;;10.83;;
2039;SDS011;1025;42.686;23.350;2023-10-31T04:57:19;20.27;;;11.50;;
2039;SDS011;1025;42.686;23.350;2023-10-31T04:59:45;18.00;;;11.23;;
2039;SDS011;1025;42.686;23.350;2023-10-31T05:02:12;16.67;;;11.93;;
2039;SDS011;1025;42.686;23.350;2023-10-31T05:04:38;16.50;;;11.77;;
2039;SDS011;1025;42.686;23.350;2023-10-31T05:07:05;16.43;;;12.27;;
2039;SDS011;1025;42.686;23.350;2023-10-31T05:09:32;21.43;;;13.70;;
2039;SDS011;1025;42.686;23.350;2023-10-31T05:11:58;25.50;;;13.27;;
2039;SDS011;1025;42.686;23.350;2023-10-31T05:14:26;18.47;;;12.77;;
2039;SDS011;1025;42.686;23.350;2023-10-31T05:16:53;17.87;;;11.80;;
2039;SDS011;1025;42.686;23.350;2023-10-31T05:19:19;20.67;;;11.70;;
2039;SDS011;1025;42.686;23.350;2023-10-31T05:21:46;20.17;;;14.03;;
2039;SDS011;1025;42.686;23.350;2023-10-31T05:24:12;18.67;;;13.60;;
2039;SDS011;1025;42.686;23.350;2023-10-31T05:26:39;22.00;;;13.07;;
2039;SDS011;1025;42.686;23.350;2023-10-31T05:29:06;26.50;;;17.50;;
2039;SDS011;1025;42.686;23.350;2023-10-31T05:31:34;17.50;;;14.10;;
2039;SDS011;1025;42.686;23.350;2023-10-31T05:34:00;16.97;;;11.47;;
2039;SDS011;1025;42.686;23.350;2023-10-31T05:36:28;25.73;;;15.33;;
2039;SDS011;1025;42.686;23.350;2023-10-31T05:38:55;20.50;;;15.03;;
2039;SDS011;1025;42.686;23.350;2023-10-31T05:41:21;22.30;;;13.47;;
2039;SDS011;1025;42.686;23.350;2023-10-31T05:43:48;26.37;;;13.90;;
2039;SDS011;1025;42.686;23.350;2023-10-31T05:46:15;16.30;;;11.63;;
2039;SDS011;1025;42.686;23.350;2023-10-31T05:48:43;15.50;;;11.97;;
2039;SDS011;1025;42.686;23.350;2023-10-31T05:51:11;17.20;;;10.93;;
2039;SDS011;1025;42.686;23.350;2023-10-31T05:53:38;22.63;;;13.93;;
2039;SDS011;1025;42.686;23.350;2023-10-31T05:56:05;27.53;;;14.73;;
2039;SDS011;1025;42.686;23.350;2023-10-31T05:58:32;22.17;;;13.07;;
2039;SDS011;1025;42.686;23.350;2023-10-31T06:00:59;24.17;;;14.53;;
2039;SDS011;1025;42.686;23.350;2023-10-31T06:03:25;20.90;;;14.60;;
2039;SDS011;1025;42.686;23.350;2023-10-31T06:05:53;20.83;;;12.57;;
2039;SDS011;1025;42.686;23.350;2023-10-31T06:08:19;18.87;;;11.97;;
2039;SDS011;1025;42.686;23.350;2023-10-31T06:10:46;17.03;;;12.37;;
2039;SDS011;1025;42.686;23.350;2023-10-31T06:13:12;23.10;;;12.67;;
2039;SDS011;1025;42.686;23.350;2023-10-31T06:15:39;18.83;;;13.43;;
2039;SDS011;1025;42.686;23.350;2023-10-31T06:18:06;21.20;;;12.93;;
2039;SDS011;1025;42.686;23.350;2023-10-31T06:20:32;29.27;;;14.73;;
2039;SDS011;1025;42.686;23.350;2023-10-31T06:23:01;31.03;;;14.80;;
2039;SDS011;1025;42.686;23.350;2023-10-31T06:25:28;22.60;;;13.03;;
2039;SDS011;1025;42.686;23.350;2023-10-31T06:27:55;15.63;;;12.53;;
2039;SDS011;1025;42.686;23.350;2023-10-31T06:30:22;20.70;;;12.20;;
2039;SDS011;1025;42.686;23.350;2023-10-31T06:32:49;14.77;;;11.70;;
2039;SDS011;1025;42.686;23.350;2023-10-31T06:35:16;20.77;;;14.37;;
2039;SDS011;1025;42.686;23.350;2023-10-31T06:37:43;19.57;;;11.63;;
2039;SDS011;1025;42.686;23.350;2023-10-31T06:40:11;22.53;;;11.93;;
2039;SDS011;1025;42.686;23.350;2023-10-31T06:42:38;18.83;;;13.03;;
2039;SDS011;1025;42.686;23.350;2023-10-31T06:45:05;15.40;;;11.50;;
2039;SDS011;1025;42.686;23.350;2023-10-31T06:47:32;12.47;;;11.17;;
2039;SDS011;1025;42.686;23.350;2023-10-31T06:49:59;11.67;;;10.43;;
2039;SDS011;1025;42.686;23.350;2023-10-31T06:52:25;12.73;;;10.73;;
2039;SDS011;1025;42.686;23.350;2023-10-31T06:54:52;15.53;;;12.50;;
2039;SDS011;1025;42.686;23.350;2023-10-31T06:57:20;16.07;;;11.00;;
2039;SDS011;1025;42.686;23.350;2023-10-31T06:59:46;12.70;;;10.90;;
2039;SDS011;1025;42.686;23.350;2023-10-31T07:02:13;17.60;;;11.77;;
2039;SDS011;1025;42.686;23.350;2023-10-31T07:04:39;13.93;;;9.83;;
2039;SDS011;1025;42.686;23.350;2023-10-31T07:07:06;13.83;;;10.00;;
2039;SDS011;1025;42.686;23.350;2023-10-31T07:09:32;16.40;;;12.07;;
2039;SDS011;1025;42.686;23.350;2023-10-31T07:11:59;17.80;;;11.37;;
2039;SDS011;1025;42.686;23.350;2023-10-31T07:14:27;21.20;;;12.13;;
2039;SDS011;1025;42.686;23.350;2023-10-31T07:16:53;16.00;;;11.13;;
2039;SDS011;1025;42.686;23.350;2023-10-31T07:19:20;16.27;;;10.20;;
2039;SDS011;1025;42.686;23.350;2023-10-31T07:21:46;13.97;;;12.33;;
2039;SDS011;1025;42.686;23.350;2023-10-31T07:24:13;17.63;;;10.87;;
2039;SDS011;1025;42.686;23.350;2023-10-31T07:26:39;13.37;;;10.80;;
2039;SDS011;1025;42.686;23.350;2023-10-31T07:29:06;14.30;;;9.50;;
2039;SDS011;1025;42.686;23.350;2023-10-31T07:31:35;9.47;;;8.57;;
2039;SDS011;1025;42.686;23.350;2023-10-31T07:34:03;14.67;;;9.67;;
2039;SDS011;1025;42.686;23.350;2023-10-31T07:36:30;19.83;;;10.90;;
2039;SDS011;1025;42.686;23.350;2023-10-31T07:38:59;11.97;;;9.80;;
2039;SDS011;1025;42.686;23.350;2023-10-31T07:41:26;19.37;;;12.80;;
2039;SDS011;1025;42.686;23.350;2023-10-31T07:43:53;13.53;;;10.00;;
2039;SDS011;1025;42.686;23.350;2023-10-31T07:46:19;11.00;;;8.37;;
2039;SDS011;1025;42.686;23.350;2023-10-31T07:48:47;11.73;;;7.90;;
2039;SDS011;1025;42.686;23.350;2023-10-31T07:51:14;8.77;;;7.33;;
2039;SDS011;1025;42.686;23.350;2023-10-31T07:53:41;8.17;;;7.37;;
2039;SDS011;1025;42.686;23.350;2023-10-31T07:56:13;11.50;;;7.33;;
2039;SDS011;1025;42.686;23.350;2023-10-31T07:58:40;10.90;;;8.00;;
2039;SDS011;1025;42.686;23.350;2023-10-31T08:01:07;8.70;;;6.87;;
2039;SDS011;1025;42.686;23.350;2023-10-31T08:03:35;18.33;;;8.60;;
2039;SDS011;1025;42.686;23.350;2023-10-31T08:06:05;9.70;;;7.20;;
2039;SDS011;1025;42.686;23.350;2023-10-31T08:08:31;9.37;;;8.47;;
2039;SDS011;1025;42.686;23.350;2023-10-31T08:10:58;12.90;;;7.90;;
2039;SDS011;1025;42.686;23.350;2023-10-31T08:13:24;9.47;;;7.43;;
2039;SDS011;1025;42.686;23.350;2023-10-31T08:15:51;11.23;;;8.17;;
2039;SDS011;1025;42.686;23.350;2023-10-31T08:18:18;8.07;;;7.33;;
2039;SDS011;1025;42.686;23.350;2023-10-31T08:20:44;12.40;;;10.13;;
2039;SDS011;1025;42.686;23.350;2023-10-31T08:23:18;11.53;;;7.97;;
2039;SDS011;1025;42.686;23.350;2023-10-31T08:25:44;9.27;;;6.13;;
2039;SDS011;1025;42.686;23.350;2023-10-31T08:28:11;16.07;;;6.40;;
2039;SDS011;1025;42.686;23.350;2023-10-31T08:30:38;11.03;;;6.93;;
2039;SDS011;1025;42.686;23.350;2023-10-31T08:33:05;7.50;;;6.27;;
2039;SDS011;1025;42.686;23.350;2023-10-31T08:35:31;10.70;;;7.30;;
2039;SDS011;1025;42.686;23.350;2023-10-31T08:37:58;9.80;;;6.90;;
2039;SDS011;1025;42.686;23.350;2023-10-31T08:40:26;8.60;;;5.90;;
2039;SDS011;1025;42.686;23.350;2023-10-31T08:42:52;6.37;;;5.70;;
2039;SDS011;1025;42.686;23.350;2023-10-31T08:45:20;9.63;;;6.20;;
2039;SDS011;1025;42.686;23.350;2023-10-31T08:47:46;9.47;;;6.10;;
2039;SDS011;1025;42.686;23.350;2023-10-31T08:50:13;9.73;;;7.10;;
2039;SDS011;1025;42.686;23.350;2023-10-31T08:52:40;10.63;;;6.87;;
2039;SDS011;1025;42.686;23.350;2023-10-31T08:55:06;12.27;;;5.77;;
2039;SDS011;1025;42.686;23.350;2023-10-31T08:57:34;11.83;;;6.70;;
2039;SDS011;1025;42.686;23.350;2023-10-31T09:00:01;14.83;;;7.50;;
2039;SDS011;1025;42.686;23.350;2023-10-31T09:02:30;10.20;;;5.43;;
2039;SDS011;1025;42.686;23.350;2023-10-31T09:04:56;11.40;;;7.00;;
2039;SDS011;1025;42.686;23.350;2023-10-31T09:07:23;9.47;;;6.40;;
2039;SDS011;1025;42.686;23.350;2023-10-31T09:09:49;11.87;;;6.70;;
2039;SDS011;1025;42.686;23.350;2023-10-31T09:12:16;12.13;;;6.50;;
2039;SDS011;1025;42.686;23.350;2023-10-31T09:14:44;9.10;;;6.00;;
2039;SDS011;1025;42.686;23.350;2023-10-31T09:17:11;9.37;;;6.87;;
2039;SDS011;1025;42.686;23.350;2023-10-31T09:19:38;7.60;;;6.33;;
2039;SDS011;1025;42.686;23.350;2023-10-31T09:22:04;11.33;;;7.70;;
2039;SDS011;1025;42.686;23.350;2023-10-31T09:24:31;16.27;;;8.40;;
2039;SDS011;1025;42.686;23.350;2023-10-31T09:26:57;17.77;;;9.50;;
2039;SDS011;1025;42.686;23.350;2023-10-31T09:29:24;15.13;;;9.20;;
2039;SDS011;1025;42.686;23.350;2023-10-31T09:31:52;12.83;;;8.43;;
2039;SDS011;1025;42.686;23.350;2023-10-31T09:34:18;11.70;;;9.00;;
2039;SDS011;1025;42.686;23.350;2023-10-31T09:36:45;13.90;;;8.23;;
2039;SDS011;1025;42.686;23.350;2023-10-31T09:39:11;8.00;;;6.83;;
2039;SDS011;1025;42.686;23.350;2023-10-31T09:41:38;18.67;;;9.17;;
2039;SDS011;1025;42.686;23.350;2023-10-31T09:44:04;13.23;;;8.53;;
2039;SDS011;1025;42.686;23.350;2023-10-31T09:46:31;13.70;;;8.30;;
2039;SDS011;1025;42.686;23.350;2023-10-31T09:48:59;15.47;;;10.53;;
2039;SDS011;1025;42.686;23.350;2023-10-31T09:51:26;16.40;;;8.83;;
2039;SDS011;1025;42.686;23.350;2023-10-31T09:53:54;7.70;;;6.77;;
2039;SDS011;1025;42.686;23.350;2023-10-31T09:56:20;13.23;;;8.47;;
2039;SDS011;1025;42.686;23.350;2023-10-31T09:58:47;17.07;;;8.90;;
2039;SDS011;1025;42.686;23.350;2023-10-31T10:01:14;13.60;;;7.77;;
2039;SDS011;1025;42.686;23.350;2023-10-31T10:03:41;14.70;;;9.67;;
2039;SDS011;1025;42.686;23.350;2023-10-31T10:06:09;9.07;;;7.97;;
2039;SDS011;1025;42.686;23.350;2023-10-31T10:08:36;12.47;;;7.87;;
2039;SDS011;1025;42.686;23.350;2023-10-31T10:11:04;9.03;;;6.97;;
2039;SDS011;1025;42.686;23.350;2023-10-31T10:13:30;11.37;;;6.90;;
2039;SDS011;1025;42.686;23.350;2023-10-31T10:15:57;9.43;;;6.97;;
2039;SDS011;1025;42.686;23.350;2023-10-31T10:18:26;10.27;;;5.87;;
2039;SDS011;1025;42.686;23.350;2023-10-31T10:20:56;7.10;;;5.33;;
2039;SDS011;1025;42.686;23.350;2023-10-31T10:23:25;9.20;;;7.03;;
2039;SDS011;1025;42.686;23.350;2023-10-31T10:25:52;8.90;;;5.37;;
2039;SDS011;1025;42.686;23.350;2023-10-31T10:28:18;7.27;;;4.47;;
2039;SDS011;1025;42.686;23.350;2023-10-31T10:30:45;9.23;;;4.90;;
2039;SDS011;1025;42.686;23.350;2023-10-31T10:33:12;8.23;;;5.37;;
2039;SDS011;1025;42.686;23.350;2023-10-31T10:35:38;5.33;;;4.50;;
2039;SDS011;1025;42.686;23.350;2023-10-31T10:38:05;8.77;;;4.83;;
2039;SDS011;1025;42.686;23.350;2023-10-31T10:40:37;7.97;;;4.93;;
2039;SDS011;1025;42.686;23.350;2023-10-31T10:43:05;7.30;;;4.07;;
2039;SDS011;1025;42.686;23.350;2023-10-31T10:45:33;7.87;;;4.80;;
2039;SDS011;1025;42.686;23.350;2023-10-31T10:48:00;7.03;;;5.13;;
2039;SDS011;1025;42.686;23.350;2023-10-31T10:50:29;12.60;;;4.93;;
2039;SDS011;1025;42.686;23.350;2023-10-31T10:52:59;10.37;;;4.73;;
2039;SDS011;1025;42.686;23.350;2023-10-31T10:55:26;11.03;;;5.17;;
2039;SDS011;1025;42.686;23.350;2023-10-31T10:58:00;9.00;;;5.60;;
2039;SDS011;1025;42.686;23.350;2023-10-31T11:00:27;7.07;;;3.83;;
2039;SDS011;1025;42.686;23.350;2023-10-31T11:02:55;5.83;;;3.40;;
2039;SDS011;1025;42.686;23.350;2023-10-31T11:05:22;9.50;;;3.80;;
2039;SDS011;1025;42.686;23.350;2023-10-31T11:07:49;7.67;;;4.60;;
2039;SDS011;1025;42.686;23.350;2023-10-31T11:10:17;8.57;;;4.47;;
2039;SDS011;1025;42.686;23.350;2023-10-31T11:12:44;5.77;;;3.57;;
2039;SDS011;1025;42.686;23.350;2023-10-31T11:15:13;10.77;;;4.23;;
2039;SDS011;1025;42.686;23.350;2023-10-31T11:17:41;7.00;;;5.07;;
2039;SDS011;1025;42.686;23.350;2023-10-31T11:20:10;4.60;;;3.57;;
2039;SDS011;1025;42.686;23.350;2023-10-31T11:22:37;7.10;;;2.97;;
2039;SDS011;1025;42.686;23.350;2023-10-31T11:25:04;5.30;;;3.63;;
2039;SDS011;1025;42.686;23.350;2023-10-31T11:27:31;6.17;;;3.90;;
2039;SDS011;1025;42.686;23.350;2023-10-31T11:29:59;5.73;;;2.80;;
2039;SDS011;1025;42.686;23.350;2023-10-31T11:32:27;5.13;;;3.57;;
2039;SDS011;1025;42.686;23.350;2023-10-31T11:34:54;10.83;;;4.90;;
2039;SDS011;1025;42.686;23.350;2023-10-31T11:37:24;8.30;;;3.77;;
2039;SDS011;1025;42.686;23.350;2023-10-31T11:42:37;5.47;;;3.77;;
2039;SDS011;1025;42.686;23.350;2023-10-31T11:45:04;9.20;;;2.97;;
2039;SDS011;1025;42.686;23.350;2023-10-31T11:50:14;6.13;;;3.37;;
2039;SDS011;1025;42.686;23.350;2023-10-31T11:52:40;5.57;;;3.40;;
2039;SDS011;1025;42.686;23.350;2023-10-31T11:55:08;3.83;;;3.27;;
2039;SDS011;1025;42.686;23.350;2023-10-31T11:57:35;10.70;;;3.90;;
2039;SDS011;1025;42.686;23.350;2023-10-31T12:00:02;7.43;;;3.30;;
2039;SDS011;1025;42.686;23.350;2023-10-31T12:02:30;9.47;;;4.00;;
2039;SDS011;1025;42.686;23.350;2023-10-31T12:05:06;4.30;;;3.30;;
2039;SDS011;1025;42.686;23.350;2023-10-31T12:07:42;13.23;;;5.00;;
2039;SDS011;1025;42.686;23.350;2023-10-31T12:10:09;11.23;;;4.63;;
2039;SDS011;1025;42.686;23.350;2023-10-31T12:12:35;6.60;;;4.33;;
2039;SDS011;1025;42.686;23.350;2023-10-31T12:15:05;9.63;;;6.73;;
2039;SDS011;1025;42.686;23.350;2023-10-31T12:17:33;11.40;;;7.10;;
2039;SDS011;1025;42.686;23.350;2023-10-31T12:20:02;6.27;;;4.33;;
2039;SDS011;1025;42.686;23.350;2023-10-31T12:22:29;13.97;;;5.40;;
2039;SDS011;1025;42.686;23.350;2023-10-31T12:25:01;13.57;;;5.10;;
2039;SDS011;1025;42.686;23.350;2023-10-31T12:27:41;5.47;;;4.40;;
2039;SDS011;1025;42.686;23.350;2023-10-31T12:30:08;9.90;;;5.57;;
2039;SDS011;1025;42.686;23.350;2023-10-31T12:32:35;9.23;;;3.87;;
2039;SDS011;1025;42.686;23.350;2023-10-31T12:35:01;5.00;;;3.80;;
2039;SDS011;1025;42.686;23.350;2023-10-31T12:37:28;12.77;;;3.90;;
2039;SDS011;1025;42.686;23.350;2023-10-31T12:39:55;9.80;;;5.10;;
2039;SDS011;1025;42.686;23.350;2023-10-31T12:42:23;10.93;;;6.00;;
2039;SDS011;1025;42.686;23.350;2023-10-31T12:44:55;5.17;;;3.90;;
2039;SDS011;1025;42.686;23.350;2023-10-31T12:47:22;7.20;;;5.07;;
2039;SDS011;1025;42.686;23.350;2023-10-31T12:50:02;5.70;;;4.93;;
2039;SDS011;1025;42.686;23.350;2023-10-31T12:52:34;17.00;;;6.00;;
2039;SDS011;1025;42.686;23.350;2023-10-31T12:55:14;8.60;;;3.30;;
2039;SDS011;1025;42.686;23.350;2023-10-31T12:57:42;5.07;;;3.00;;
2039;SDS011;1025;42.686;23.350;2023-10-31T13:00:09;9.20;;;4.43;;
2039;SDS011;1025;42.686;23.350;2023-10-31T13:02:38;10.23;;;5.30;;
2039;SDS011;1025;42.686;23.350;2023-10-31T13:05:08;10.97;;;4.70;;
2039;SDS011;1025;42.686;23.350;2023-10-31T13:07:34;12.90;;;5.20;;
2039;SDS011;1025;42.686;23.350;2023-10-31T13:10:01;9.07;;;4.10;;
2039;SDS011;1025;42.686;23.350;2023-10-31T13:12:29;10.00;;;4.10;;
2039;SDS011;1025;42.686;23.350;2023-10-31T13:14:57;7.87;;;4.53;;
2039;SDS011;1025;42.686;23.350;2023-10-31T13:17:24;11.30;;;4.87;;
2039;SDS011;1025;42.686;23.350;2023-10-31T13:19:51;11.30;;;4.97;;
2039;SDS011;1025;42.686;23.350;2023-10-31T13:22:17;8.17;;;4.40;;
2039;SDS011;1025;42.686;23.350;2023-10-31T13:24:44;9.07;;;5.87;;
2039;SDS011;1025;42.686;23.350;2023-10-31T13:27:11;7.43;;;4.80;;
2039;SDS011;1025;42.686;23.350;2023-10-31T13:29:40;8.40;;;4.17;;
2039;SDS011;1025;42.686;23.350;2023-10-31T13:32:08;8.53;;;5.27;;
2039;SDS011;1025;42.686;23.350;2023-10-31T13:34:35;14.90;;;6.10;;
2039;SDS011;1025;42.686;23.350;2023-10-31T13:37:01;6.37;;;4.90;;
2039;SDS011;1025;42.686;23.350;2023-10-31T13:39:28;6.70;;;4.70;;
2039;SDS011;1025;42.686;23.350;2023-10-31T13:41:55;6.60;;;3.90;;
2039;SDS011;1025;42.686;23.350;2023-10-31T13:44:21;5.90;;;3.87;;
2039;SDS011;1025;42.686;23.350;2023-10-31T13:46:48;6.43;;;3.90;;
2039;SDS011;1025;42.686;23.350;2023-10-31T13:49:16;14.47;;;5.13;;
2039;SDS011;1025;42.686;23.350;2023-10-31T13:51:42;10.77;;;4.60;;
2039;SDS011;1025;42.686;23.350;2023-10-31T13:54:09;16.03;;;6.57;;
2039;SDS011;1025;42.686;23.350;2023-10-31T13:56:35;9.27;;;4.10;;
2039;SDS011;1025;42.686;23.350;2023-10-31T13:59:02;19.73;;;5.13;;
2039;SDS011;1025;42.686;23.350;2023-10-31T14:01:29;14.23;;;4.23;;
2039;SDS011;1025;42.686;23.350;2023-10-31T14:03:55;17.30;;;6.70;;
2039;SDS011;1025;42.686;23.350;2023-10-31T14:06:23;9.60;;;4.90;;
2039;SDS011;1025;42.686;23.350;2023-10-31T14:08:55;8.77;;;6.43;;
2039;SDS011;1025;42.686;23.350;2023-10-31T14:11:21;12.00;;;7.57;;
2039;SDS011;1025;42.686;23.350;2023-10-31T14:13:48;11.37;;;5.70;;
2039;SDS011;1025;42.686;23.350;2023-10-31T14:16:15;17.13;;;7.57;;
2039;SDS011;1025;42.686;23.350;2023-10-31T14:18:41;9.70;;;6.37;;
2039;SDS011;1025;42.686;23.350;2023-10-31T14:21:08;9.40;;;6.53;;
2039;SDS011;1025;42.686;23.350;2023-10-31T14:23:37;11.40;;;5.97;;
2039;SDS011;1025;42.686;23.350;2023-10-31T14:26:03;11.03;;;5.80;;
2039;SDS011;1025;42.686;23.350;2023-10-31T14:28:30;15.67;;;5.70;;
2039;SDS011;1025;42.686;23.350;2023-10-31T14:30:56;11.47;;;5.30;;
2039;SDS011;1025;42.686;23.350;2023-10-31T14:33:23;13.27;;;6.77;;
2039;SDS011;1025;42.686;23.350;2023-10-31T14:35:49;8.90;;;6.47;;
2039;SDS011;1025;42.686;23.350;2023-10-31T14:38:16;13.70;;;7.37;;
2039;SDS011;1025;42.686;23.350;2023-10-31T14:40:44;17.80;;;7.50;;
2039;SDS011;1025;42.686;23.350;2023-10-31T14:43:11;16.07;;;6.17;;
2039;SDS011;1025;42.686;23.350;2023-10-31T14:45:43;11.80;;;7.70;;
2039;SDS011;1025;42.686;23.350;2023-10-31T14:48:09;14.40;;;7.60;;
2039;SDS011;1025;42.686;23.350;2023-10-31T14:50:36;12.90;;;8.57;;
2039;SDS011;1025;42.686;23.350;2023-10-31T14:53:03;14.80;;;7.77;;
2039;SDS011;1025;42.686;23.350;2023-10-31T14:55:30;16.60;;;6.93;;